createdAt,value
2022-07-27T00:01:58.719Z,100245.88
2022-07-27T00:04:25.856Z,100251.50
2022-07-27T00:06:53.148Z,100257.06
2022-07-27T00:09:20.142Z,100259.47
2022-07-27T00:11:48.229Z,100257.66
2022-07-27T00:14:15.463Z,100266.19
2022-07-27T00:16:42.924Z,100259.09
2022-07-27T00:19:11.175Z,100249.34
2022-07-27T00:21:44.438Z,100251.38
2022-07-27T00:24:12.247Z,100252.59
2022-07-27T00:26:39.265Z,100254.03
2022-07-27T00:29:06.328Z,100253.41
2022-07-27T00:31:33.460Z,100247.72
2022-07-27T00:34:01.692Z,100254.25
2022-07-27T00:36:28.757Z,100264.78
2022-07-27T00:38:55.724Z,100252.00
2022-07-27T00:41:22.741Z,100255.03
2022-07-27T00:43:55.713Z,100259.69
2022-07-27T00:46:24.569Z,100260.72
2022-07-27T00:48:52.241Z,100255.44
2022-07-27T00:51:21.670Z,100250.53
2022-07-27T00:53:49.612Z,100246.91
2022-07-27T00:56:16.741Z,100250.56
2022-07-27T00:58:48.878Z,100253.19
2022-07-27T01:01:19.005Z,100248.94
2022-07-27T01:03:47.911Z,100241.03
2022-07-27T01:06:16.281Z,100243.28
2022-07-27T01:08:44.301Z,100236.34
2022-07-27T01:11:12.147Z,100233.13
2022-07-27T01:13:39.442Z,100229.03
2022-07-27T01:16:07.546Z,100236.75
2022-07-27T01:18:38.273Z,100236.75
2022-07-27T01:21:08.941Z,100237.16
2022-07-27T01:23:36.877Z,100233.50
2022-07-27T01:26:05.888Z,100241.84
2022-07-27T01:28:32.945Z,100231.50
2022-07-27T01:31:01.224Z,100223.38
2022-07-27T01:33:28.334Z,100228.66
2022-07-27T01:35:58.573Z,100230.28
2022-07-27T01:38:26.991Z,100233.13
2022-07-27T01:40:56.182Z,100227.63
2022-07-27T01:43:23.689Z,100229.03
2022-07-27T01:45:50.873Z,100218.50
2022-07-27T01:48:19.830Z,100221.75
2022-07-27T01:50:47.969Z,100220.31
2022-07-27T01:53:15.155Z,100220.31
2022-07-27T01:55:43.551Z,100215.25
2022-07-27T01:58:12.405Z,100215.25
2022-07-27T02:00:40.689Z,100219.53
2022-07-27T02:03:10.434Z,100211.78
2022-07-27T02:05:39.177Z,100211.81
2022-07-27T02:08:08.103Z,100214.84
2022-07-27T02:10:36.815Z,100205.09
2022-07-27T02:13:22.755Z,100202.69
2022-07-27T02:15:54.916Z,100203.09
2022-07-27T02:18:33.598Z,100210.00
2022-07-27T02:21:06.722Z,100207.53
2022-07-27T02:23:35.503Z,100197.81
2022-07-27T02:26:04.202Z,100202.03
2022-07-27T02:28:31.655Z,100200.22
2022-07-27T02:30:58.750Z,100201.84
2022-07-27T02:33:25.744Z,100207.53
2022-07-27T02:35:53.707Z,100198.81
2022-07-27T02:38:20.775Z,100195.38
2022-07-27T02:40:47.927Z,100201.03
2022-07-27T02:43:15.073Z,100201.44
2022-07-27T02:45:42.073Z,100194.16
2022-07-27T02:48:09.007Z,100199.38
2022-07-27T02:50:38.103Z,100197.41
2022-07-27T02:53:05.105Z,100197.16
2022-07-27T02:55:32.131Z,100196.19
2022-07-27T02:57:59.111Z,100204.28
2022-07-27T03:00:26.435Z,100200.66
2022-07-27T03:02:53.396Z,100204.28
2022-07-27T03:05:20.483Z,100220.97
2022-07-27T03:07:48.550Z,100212.03
2022-07-27T03:10:15.554Z,100215.03
2022-07-27T03:12:44.260Z,100200.63
2022-07-27T03:15:11.633Z,100213.44
2022-07-27T03:17:38.833Z,100210.41
2022-07-27T03:20:08.772Z,100215.22
2022-07-27T03:22:37.940Z,100202.25
2022-07-27T03:25:05.895Z,100202.44
2022-07-27T03:27:32.882Z,100214.03
2022-07-27T03:29:59.911Z,100214.41
2022-07-27T03:32:26.918Z,100217.28
2022-07-27T03:34:53.965Z,100230.84
2022-07-27T03:37:21.013Z,100233.09
2022-07-27T03:39:48.091Z,100227.81
2022-07-27T03:42:15.161Z,100221.31
2022-07-27T03:44:42.206Z,100226.56
2022-07-27T03:47:09.215Z,100228.41
2022-07-27T03:49:36.324Z,100226.16
2022-07-27T03:52:03.597Z,100231.66
2022-07-27T03:54:30.811Z,100231.41
2022-07-27T03:56:57.836Z,100240.75
2022-07-27T03:59:27.166Z,100250.88
2022-07-27T04:01:54.883Z,100228.97
2022-07-27T04:04:21.941Z,100242.09
2022-07-27T04:06:48.903Z,100241.53
2022-07-27T04:09:17.212Z,100256.59
2022-07-27T04:11:50.941Z,100254.06
2022-07-27T04:14:18.952Z,100246.09
2022-07-27T04:16:46.986Z,100245.31
2022-07-27T04:19:14.491Z,100257.88
2022-07-27T04:21:41.840Z,100263.28
2022-07-27T04:24:09.307Z,100263.78
2022-07-27T04:26:36.943Z,100264.94
2022-07-27T04:29:04.335Z,100258.50
2022-07-27T04:31:31.839Z,100255.28
2022-07-27T04:33:58.838Z,100251.94
2022-07-27T04:36:25.945Z,100260.91
2022-07-27T04:38:52.880Z,100262.94
2022-07-27T04:41:19.842Z,100270.22
2022-07-27T04:43:47.040Z,100257.25
2022-07-27T04:46:15.743Z,100266.41
2022-07-27T04:48:49.444Z,100264.22
2022-07-27T04:51:18.090Z,100264.59
2022-07-27T04:53:54.006Z,100266.22
2022-07-27T04:56:27.198Z,100265.84
2022-07-27T04:58:55.609Z,100253.66
2022-07-27T05:01:23.343Z,100263.41
2022-07-27T05:03:50.558Z,100267.63
2022-07-27T05:06:17.875Z,100272.34
2022-07-27T05:08:44.990Z,100271.97
2022-07-27T05:11:12.121Z,100266.06
2022-07-27T05:13:42.237Z,100262.00
2022-07-27T05:16:11.645Z,100271.34
2022-07-27T05:18:39.728Z,100266.06
2022-07-27T05:21:08.378Z,100268.69
2022-07-27T05:23:36.428Z,100270.31
2022-07-27T05:26:03.692Z,100271.94
2022-07-27T05:28:30.701Z,100276.00
2022-07-27T05:30:58.993Z,100276.41
2022-07-27T05:33:26.104Z,100290.38
2022-07-27T05:35:53.145Z,100287.16
2022-07-27T05:38:20.076Z,100302.34
2022-07-27T05:40:47.545Z,100302.75
2022-07-27T05:43:14.625Z,100303.53
2022-07-27T05:45:41.692Z,100303.47
2022-07-27T05:48:08.812Z,100313.53
2022-07-27T05:50:35.899Z,100306.31
2022-07-27T05:53:03.680Z,100313.19
2022-07-27T05:55:30.648Z,100315.56
2022-07-27T05:57:57.797Z,100310.34
2022-07-27T06:00:24.954Z,100314.13
2022-07-27T06:02:51.934Z,100305.53
2022-07-27T06:05:21.379Z,100314.72
2022-07-27T06:08:00.918Z,100304.16
2022-07-27T06:10:33.921Z,100309.06
2022-07-27T06:13:03.977Z,100304.41
2022-07-27T06:15:32.548Z,100309.69
2022-07-27T06:17:59.599Z,100303.38
2022-07-27T06:20:27.331Z,100314.13
2022-07-27T06:23:00.355Z,100309.25
2022-07-27T06:25:34.150Z,100322.22
2022-07-27T06:28:04.434Z,100320.38
2022-07-27T06:30:31.882Z,100316.75
2022-07-27T06:32:59.200Z,100312.69
2022-07-27T06:35:27.103Z,100322.66
2022-07-27T06:37:54.187Z,100321.03
2022-07-27T06:40:21.657Z,100322.47
2022-07-27T06:42:48.691Z,100324.69
2022-07-27T06:45:16.507Z,100326.31
2022-07-27T06:47:49.739Z,100327.31
2022-07-27T06:50:23.524Z,100327.31
2022-07-27T06:52:50.719Z,100328.72
2022-07-27T06:55:17.904Z,100326.06
2022-07-27T06:57:46.520Z,100331.16
2022-07-27T07:00:15.215Z,100331.78
2022-07-27T07:03:03.078Z,100339.91
2022-07-27T07:05:32.195Z,100334.81
2022-07-27T07:07:59.261Z,100345.19
2022-07-27T07:10:27.699Z,100332.38
2022-07-27T07:12:58.242Z,100336.66
2022-07-27T07:15:26.514Z,100335.44
2022-07-27T07:17:54.778Z,100337.44
2022-07-27T07:20:22.219Z,100338.28
2022-07-27T07:22:50.600Z,100336.03
2022-07-27T07:25:18.050Z,100327.59
2022-07-27T07:27:45.090Z,100335.78
2022-07-27T07:30:13.006Z,100336.66
2022-07-27T07:32:40.177Z,100340.25
2022-07-27T07:35:08.204Z,100337.34
2022-07-27T07:37:35.170Z,100355.91
2022-07-27T07:40:32.155Z,100339.47
2022-07-27T07:42:56.491Z,100346.00
2022-07-27T07:45:25.030Z,100353.31
2022-07-27T07:47:55.140Z,100342.31
2022-07-27T07:50:23.301Z,100356.94
2022-07-27T07:52:52.950Z,100345.78
2022-07-27T07:55:22.808Z,100332.28
2022-07-27T07:57:50.744Z,100341.03
2022-07-27T08:00:19.353Z,100338.25
2022-07-27T08:02:48.809Z,100339.16
2022-07-27T08:05:16.588Z,100325.31
2022-07-27T08:07:45.040Z,100331.06
2022-07-27T08:10:14.935Z,100337.56
2022-07-27T08:12:45.587Z,100335.19
2022-07-27T08:15:14.837Z,100336.56
2022-07-27T08:17:45.625Z,100333.47
2022-07-27T08:20:14.580Z,100333.09
2022-07-27T08:22:42.276Z,100337.94
2022-07-27T08:25:12.844Z,100337.75
2022-07-27T08:27:40.952Z,100335.63
2022-07-27T08:30:10.557Z,100336.78
2022-07-27T08:32:59.863Z,100328.91
2022-07-27T08:35:28.742Z,100328.69
2022-07-27T08:37:56.255Z,100341.22
2022-07-27T08:43:13.265Z,100324.13
2022-07-27T08:45:41.823Z,100321.66
2022-07-27T08:48:14.303Z,100334.66
2022-07-27T08:50:42.747Z,100326.38
2022-07-27T08:53:13.059Z,100321.94
2022-07-27T08:55:43.917Z,100311.25
2022-07-27T08:58:13.906Z,100313.16
2022-07-27T09:00:48.283Z,100318.72
2022-07-27T09:03:20.040Z,100315.72
2022-07-27T09:05:56.287Z,100326.25
2022-07-27T09:08:30.905Z,100319.59
2022-07-27T09:11:00.270Z,100323.81
2022-07-27T09:13:34.243Z,100324.53
2022-07-27T09:16:18.171Z,100328.78
2022-07-27T09:18:46.335Z,100314.72
2022-07-27T09:21:22.971Z,100308.38
2022-07-27T09:24:17.986Z,100302.63
2022-07-27T09:27:03.781Z,100305.63
2022-07-27T09:29:36.329Z,100317.00
2022-07-27T09:32:15.747Z,100319.06
2022-07-27T09:34:44.056Z,100324.88
2022-07-27T09:37:12.326Z,100317.13
2022-07-27T09:39:39.487Z,100317.06
2022-07-27T09:42:08.183Z,100318.41
2022-07-27T09:44:42.465Z,100314.22
2022-07-27T09:47:29.689Z,100303.72
2022-07-27T09:50:17.249Z,100321.72
2022-07-27T09:52:45.378Z,100315.81
2022-07-27T09:55:12.752Z,100314.19
2022-07-27T09:57:58.108Z,100319.94
2022-07-27T10:00:27.053Z,100325.38
2022-07-27T10:02:55.532Z,100333.78
2022-07-27T10:05:23.756Z,100325.53
2022-07-27T10:07:53.597Z,100326.13
2022-07-27T10:10:22.839Z,100318.81
2022-07-27T10:12:54.703Z,100325.06
2022-07-27T10:15:23.165Z,100329.84
2022-07-27T10:17:57.888Z,100317.56
2022-07-27T10:20:25.537Z,100308.88
2022-07-27T10:23:01.135Z,100308.88
2022-07-27T10:25:37.284Z,100317.19
2022-07-27T10:28:17.479Z,100326.63
2022-07-27T10:30:49.417Z,100329.66
2022-07-27T10:33:42.901Z,100329.25
2022-07-27T10:36:38.892Z,100327.25
2022-07-27T10:39:07.701Z,100330.59
2022-07-27T10:41:40.226Z,100329.28
2022-07-27T10:44:18.833Z,100324.50
2022-07-27T10:46:52.333Z,100314.38
2022-07-27T10:49:24.741Z,100328.34
2022-07-27T10:51:55.892Z,100318.53
2022-07-27T10:54:36.649Z,100305.31
2022-07-27T10:57:06.921Z,100311.84
2022-07-27T11:02:42.730Z,100297.16
2022-07-27T11:05:53.844Z,100302.38
2022-07-27T11:10:48.788Z,100295.72
2022-07-27T11:13:19.494Z,100305.75
2022-07-27T11:16:15.764Z,100301.72
2022-07-27T11:19:04.835Z,100295.34
2022-07-27T11:21:38.109Z,100292.72
2022-07-27T11:24:15.250Z,100287.84
2022-07-27T11:26:49.517Z,100286.06
2022-07-27T11:29:19.504Z,100284.97
2022-07-27T11:31:55.906Z,100293.41
2022-07-27T11:34:33.740Z,100280.31
2022-07-27T11:37:03.576Z,100280.00
2022-07-27T11:42:23.433Z,100273.53
2022-07-27T11:44:52.952Z,100266.19
2022-07-27T11:47:24.416Z,100256.63
2022-07-27T11:49:52.133Z,100264.56
2022-07-27T11:52:19.400Z,100255.94
2022-07-27T11:54:52.790Z,100254.44
2022-07-27T11:57:20.806Z,100255.75
2022-07-27T11:59:48.668Z,100249.28
2022-07-27T12:02:19.914Z,100242.53
2022-07-27T12:04:50.360Z,100249.03
2022-07-27T12:07:29.550Z,100247.28
2022-07-27T12:10:02.045Z,100243.38
2022-07-27T12:12:31.897Z,100245.13
2022-07-27T12:15:16.303Z,100245.50
2022-07-27T12:17:57.013Z,100225.03
2022-07-27T12:20:34.210Z,100214.34
2022-07-27T12:23:06.801Z,100222.09
2022-07-27T12:25:35.107Z,100227.03
2022-07-27T12:28:13.432Z,100225.91
2022-07-27T12:30:51.932Z,100233.00
2022-07-27T12:33:37.317Z,100240.44
2022-07-27T12:36:07.172Z,100222.03
2022-07-27T12:38:51.182Z,100228.50
2022-07-27T12:41:30.874Z,100229.38
2022-07-27T12:44:12.852Z,100221.22
2022-07-27T12:47:16.862Z,100220.00
2022-07-27T12:49:46.541Z,100216.88
2022-07-27T12:52:13.674Z,100213.47
2022-07-27T12:54:40.690Z,100214.94
2022-07-27T12:57:07.599Z,100213.13
2022-07-27T12:59:34.536Z,100205.16
2022-07-27T13:02:01.673Z,100199.88
2022-07-27T13:04:28.698Z,100207.50
2022-07-27T13:06:55.685Z,100200.44
2022-07-27T13:09:22.648Z,100196.91
2022-07-27T13:11:49.620Z,100194.66
2022-07-27T13:14:16.583Z,100199.00
2022-07-27T13:16:43.594Z,100186.91
2022-07-27T13:19:11.501Z,100179.84
2022-07-27T13:21:38.755Z,100182.72
2022-07-27T13:24:09.987Z,100176.28
2022-07-27T13:26:37.847Z,100172.66
2022-07-27T13:29:05.101Z,100174.16
2022-07-27T13:31:32.462Z,100171.84
2022-07-27T13:34:00.233Z,100174.72
2022-07-27T13:36:27.416Z,100172.41
2022-07-27T13:38:54.479Z,100173.06
2022-07-27T13:41:22.236Z,100175.75
2022-07-27T13:43:49.192Z,100171.16
2022-07-27T13:46:16.501Z,100174.72
2022-07-27T13:48:43.643Z,100170.31
2022-07-27T13:51:10.668Z,100171.94
2022-07-27T13:53:37.585Z,100164.28
2022-07-27T13:56:07.305Z,100165.59
2022-07-27T13:58:35.178Z,100168.69
2022-07-27T14:01:07.100Z,100175.66
2022-07-27T14:03:34.694Z,100165.66
2022-07-27T14:06:01.651Z,100161.91
2022-07-27T14:08:28.851Z,100150.56
2022-07-27T14:10:55.833Z,100156.13
2022-07-27T14:13:24.807Z,100157.56
2022-07-27T14:15:54.073Z,100165.41
2022-07-27T14:18:32.423Z,100166.69
2022-07-27T14:21:02.404Z,100156.16
2022-07-27T14:23:30.216Z,100145.19
2022-07-27T14:25:59.148Z,100148.81
2022-07-27T14:28:28.287Z,100151.75
2022-07-27T14:30:57.098Z,100149.69
2022-07-27T14:33:25.864Z,100150.94
2022-07-27T14:36:00.165Z,100152.69
2022-07-27T14:38:30.728Z,100154.69
2022-07-27T14:41:03.423Z,100154.09
2022-07-27T14:43:31.034Z,100146.25
2022-07-27T14:45:58.490Z,100152.31
2022-07-27T14:48:42.662Z,100148.16
2022-07-27T14:51:12.434Z,100142.09
2022-07-27T14:53:39.584Z,100140.47
2022-07-27T14:56:06.552Z,100145.44
2022-07-27T14:58:33.846Z,100140.16
2022-07-27T15:01:01.013Z,100142.00
2022-07-27T15:03:28.131Z,100132.78
2022-07-27T15:05:55.083Z,100122.88
2022-07-27T15:08:22.592Z,100137.78
2022-07-27T15:10:49.630Z,100141.78
2022-07-27T15:13:17.889Z,100133.59
2022-07-27T15:15:48.302Z,100119.03
2022-07-27T15:18:16.162Z,100128.22
2022-07-27T15:20:43.167Z,100117.59
2022-07-27T15:23:10.094Z,100117.66
2022-07-27T15:25:37.348Z,100112.00
2022-07-27T15:28:04.660Z,100116.31
2022-07-27T15:30:37.902Z,100109.00
2022-07-27T15:33:06.102Z,100106.88
2022-07-27T15:35:33.147Z,100099.97
2022-07-27T15:38:00.136Z,100107.72
2022-07-27T15:40:39.210Z,100101.25
2022-07-27T15:43:15.305Z,100108.22
2022-07-27T15:45:45.711Z,100106.63
2022-07-27T15:48:13.622Z,100105.53
2022-07-27T15:50:44.617Z,100103.72
2022-07-27T15:53:12.155Z,100099.94
2022-07-27T15:55:39.259Z,100104.03
2022-07-27T15:58:06.937Z,100099.56
2022-07-27T16:00:40.679Z,100098.19
2022-07-27T16:03:13.017Z,100091.63
2022-07-27T16:05:44.445Z,100094.22
2022-07-27T16:08:11.759Z,100090.59
2022-07-27T16:10:40.952Z,100088.16
2022-07-27T16:13:10.345Z,100087.03
2022-07-27T16:15:58.266Z,100088.97
2022-07-27T16:18:26.378Z,100095.31
2022-07-27T16:20:53.826Z,100086.56
2022-07-27T16:23:28.331Z,100080.25
2022-07-27T16:26:06.771Z,100074.72
2022-07-27T16:28:40.802Z,100077.50
2022-07-27T16:31:11.303Z,100070.41
2022-07-27T16:33:38.702Z,100071.63
2022-07-27T16:36:09.482Z,100072.72
2022-07-27T16:38:40.344Z,100073.00
2022-07-27T16:41:21.261Z,100068.69
2022-07-27T16:43:49.758Z,100073.56
2022-07-27T16:46:17.718Z,100071.44
2022-07-27T16:48:45.312Z,100055.91
2022-07-27T16:51:16.178Z,100063.28
2022-07-27T16:53:46.152Z,100066.06
2022-07-27T16:56:13.680Z,100069.69
2022-07-27T16:58:41.569Z,100063.13
2022-07-27T17:01:09.495Z,100067.66
2022-07-27T17:03:37.816Z,100061.13
2022-07-27T17:06:07.159Z,100069.63
2022-07-27T17:08:36.215Z,100073.28
2022-07-27T17:11:05.366Z,100065.06
2022-07-27T17:13:37.060Z,100055.75
2022-07-27T17:16:09.363Z,100062.88
2022-07-27T17:18:40.298Z,100059.84
2022-07-27T17:21:12.501Z,100048.94
2022-07-27T17:23:41.901Z,100053.31
2022-07-27T17:26:10.199Z,100054.63
2022-07-27T17:28:39.630Z,100051.44
2022-07-27T17:31:12.621Z,100055.34
2022-07-27T17:33:40.877Z,100052.00
2022-07-27T17:36:14.721Z,100052.38
2022-07-27T17:38:47.264Z,100053.69
2022-07-27T17:41:21.912Z,100052.41
2022-07-27T17:43:52.031Z,100046.88
2022-07-27T17:46:19.050Z,100046.84
2022-07-27T17:48:46.105Z,100042.53
2022-07-27T17:51:13.153Z,100046.34
2022-07-27T17:53:40.092Z,100049.56
2022-07-27T17:56:08.432Z,100056.69
2022-07-27T17:58:35.655Z,100049.69
2022-07-27T18:01:02.803Z,100058.28
2022-07-27T18:03:29.825Z,100071.78
2022-07-27T18:05:56.987Z,100070.66
2022-07-27T18:08:24.583Z,100071.00
2022-07-27T18:10:51.998Z,100067.59
2022-07-27T18:13:19.703Z,100073.56
2022-07-27T18:15:54.155Z,100069.22
2022-07-27T18:18:27.209Z,100084.81
2022-07-27T18:20:56.442Z,100088.16
2022-07-27T18:23:27.935Z,100091.75
2022-07-27T18:25:55.563Z,100103.28
2022-07-27T18:28:23.450Z,100112.19
2022-07-27T18:30:52.835Z,100121.19
2022-07-27T18:33:21.027Z,100122.78
2022-07-27T18:35:48.749Z,100118.75
2022-07-27T18:38:16.765Z,100116.78
2022-07-27T18:40:46.732Z,100117.75
2022-07-27T18:43:16.577Z,100124.72
2022-07-27T18:45:44.107Z,100137.59
2022-07-27T18:48:11.186Z,100147.38
2022-07-27T18:50:41.694Z,100144.50
2022-07-27T18:53:09.427Z,100155.47
2022-07-27T18:55:37.140Z,100154.94
2022-07-27T18:58:04.565Z,100153.53
2022-07-27T19:00:32.090Z,100157.84
2022-07-27T19:02:59.671Z,100161.09
2022-07-27T19:05:32.341Z,100159.97
2022-07-27T19:08:13.522Z,100161.97
2022-07-27T19:10:44.763Z,100163.97
2022-07-27T19:13:12.860Z,100159.72
2022-07-27T19:15:40.278Z,100165.81
2022-07-27T19:18:07.629Z,100178.94
2022-07-27T19:20:36.406Z,100176.38
2022-07-27T19:23:07.414Z,100176.94
2022-07-27T19:25:34.731Z,100179.22
2022-07-27T19:28:03.720Z,100188.41
2022-07-27T19:30:31.259Z,100185.09
2022-07-27T19:32:58.537Z,100185.84
2022-07-27T19:35:25.624Z,100181.50
2022-07-27T19:37:52.651Z,100187.16
2022-07-27T19:40:43.308Z,100188.28
2022-07-27T19:43:07.444Z,100186.19
2022-07-27T19:45:36.359Z,100196.03
2022-07-27T19:48:05.512Z,100198.59
2022-07-27T19:50:32.961Z,100214.47
2022-07-27T19:53:00.986Z,100214.69
2022-07-27T19:55:28.044Z,100218.34
2022-07-27T19:57:55.034Z,100215.72
2022-07-27T20:00:22.384Z,100214.13
2022-07-27T20:02:49.472Z,100219.22
2022-07-27T20:05:16.581Z,100223.69
2022-07-27T20:07:43.587Z,100222.50
2022-07-27T20:10:11.123Z,100222.84
2022-07-27T20:12:38.480Z,100222.06
2022-07-27T20:15:06.686Z,100219.81
2022-07-27T20:17:37.001Z,100222.13
2022-07-27T20:20:08.593Z,100224.16
2022-07-27T20:22:35.551Z,100229.25
2022-07-27T20:25:03.085Z,100231.09
2022-07-27T20:27:30.127Z,100238.78
2022-07-27T20:29:57.128Z,100237.56
2022-07-27T20:32:24.239Z,100234.75
2022-07-27T20:34:51.352Z,100229.66
2022-07-27T20:37:18.343Z,100229.84
2022-07-27T20:39:45.360Z,100228.03
2022-07-27T20:42:12.276Z,100221.72
2022-07-27T20:44:39.391Z,100225.41
2022-07-27T20:47:08.038Z,100227.84
2022-07-27T20:49:35.487Z,100229.63
2022-07-27T20:52:02.869Z,100221.31
2022-07-27T20:54:30.449Z,100225.38
2022-07-27T20:56:57.589Z,100220.94
2022-07-27T20:59:24.803Z,100231.28
2022-07-27T21:01:52.570Z,100232.09
2022-07-27T21:04:20.391Z,100239.34
2022-07-27T21:06:50.756Z,100243.63
2022-07-27T21:09:18.764Z,100230.84
2022-07-27T21:11:46.056Z,100230.03
2022-07-27T21:14:13.079Z,100226.41
2022-07-27T21:16:40.289Z,100235.72
2022-07-27T21:19:07.653Z,100239.91
2022-07-27T21:21:34.661Z,100242.38
2022-07-27T21:24:18.382Z,100241.53
2022-07-27T21:26:51.905Z,100234.44
2022-07-27T21:29:20.567Z,100239.47
2022-07-27T21:31:50.162Z,100240.44
2022-07-27T21:34:19.979Z,100235.44
2022-07-27T21:36:48.546Z,100231.16
2022-07-27T21:39:18.131Z,100239.09
2022-07-27T21:41:45.850Z,100238.69
2022-07-27T21:44:13.350Z,100244.97
2022-07-27T21:46:40.657Z,100245.94
2022-07-27T21:49:08.215Z,100251.38
2022-07-27T21:51:35.920Z,100256.19
2022-07-27T21:54:02.978Z,100255.41
2022-07-27T21:56:30.085Z,100257.03
2022-07-27T21:58:57.468Z,100265.94
2022-07-27T22:01:24.522Z,100265.09
2022-07-27T22:03:51.622Z,100271.66
2022-07-27T22:06:18.956Z,100263.03
2022-07-27T22:08:48.823Z,100266.03
2022-07-27T22:11:15.776Z,100271.47
2022-07-27T22:13:42.743Z,100276.97
2022-07-27T22:16:12.497Z,100275.34
2022-07-27T22:18:39.785Z,100278.56
2022-07-27T22:21:06.879Z,100282.78
2022-07-27T22:23:33.861Z,100286.38
2022-07-27T22:26:01.017Z,100292.50
2022-07-27T22:28:27.989Z,100291.03
2022-07-27T22:31:15.569Z,100274.22
2022-07-27T22:33:44.314Z,100283.34
2022-07-27T22:36:12.209Z,100275.56
2022-07-27T22:38:39.571Z,100281.97
2022-07-27T22:41:06.773Z,100283.97
2022-07-27T22:43:33.956Z,100279.84
2022-07-27T22:46:03.819Z,100282.66
2022-07-27T22:48:31.019Z,100280.72
2022-07-27T22:50:57.962Z,100282.47
2022-07-27T22:53:24.960Z,100282.78
2022-07-27T22:55:51.980Z,100284.34
2022-07-27T22:58:18.893Z,100281.03
2022-07-27T23:00:45.868Z,100283.75
2022-07-27T23:03:12.849Z,100287.41
2022-07-27T23:05:39.911Z,100288.00
2022-07-27T23:08:06.887Z,100279.34
2022-07-27T23:10:46.291Z,100284.75
2022-07-27T23:13:18.803Z,100279.28
2022-07-27T23:15:46.779Z,100274.69
2022-07-27T23:18:14.234Z,100284.28
2022-07-27T23:20:41.507Z,100276.31
2022-07-27T23:23:12.403Z,100277.28
2022-07-27T23:25:48.313Z,100272.53
2022-07-27T23:28:16.797Z,100268.19
2022-07-27T23:30:44.266Z,100280.22
2022-07-27T23:33:11.463Z,100278.72
2022-07-27T23:35:38.431Z,100269.47
2022-07-27T23:38:05.433Z,100265.06
2022-07-27T23:40:32.429Z,100268.25
2022-07-27T23:42:59.505Z,100266.19
2022-07-27T23:45:28.171Z,100267.69
2022-07-27T23:47:55.320Z,100262.13
2022-07-27T23:50:22.582Z,100254.63
2022-07-27T23:52:49.559Z,100257.69
2022-07-27T23:55:16.723Z,100268.13
2022-07-27T23:57:45.479Z,100258.25
